sensor_id;sensor_type;location;lat;lon;timestamp;temperature;humidity
20102;DHT22;10210;52.284;9.892;2022-09-14T00:01:19;19.10;99.90
20102;DHT22;10210;52.284;9.892;2022-09-14T00:03:46;19.10;99.90
20102;DHT22;10210;52.284;9.892;2022-09-14T00:06:14;19.00;99.90
20102;DHT22;10210;52.284;9.892;2022-09-14T00:08:41;19.00;99.90
20102;DHT22;10210;52.284;9.892;2022-09-14T00:11:13;18.90;99.90
20102;DHT22;10210;52.284;9.892;2022-09-14T00:13:41;19.00;99.90
20102;DHT22;10210;52.284;9.892;2022-09-14T00:16:18;18.90;99.90
20102;DHT22;10210;52.284;9.892;2022-09-14T00:18:53;18.90;99.90
20102;DHT22;10210;52.284;9.892;2022-09-14T00:21:22;18.90;99.90
20102;DHT22;10210;52.284;9.892;2022-09-14T00:23:48;18.90;99.90
20102;DHT22;10210;52.284;9.892;2022-09-14T00:26:17;18.80;99.90
20102;DHT22;10210;52.284;9.892;2022-09-14T00:28:47;18.80;99.90
20102;DHT22;10210;52.284;9.892;2022-09-14T00:31:16;18.80;99.90
20102;DHT22;10210;52.284;9.892;2022-09-14T00:33:44;18.80;99.90
20102;DHT22;10210;52.284;9.892;2022-09-14T00:36:16;18.70;99.90
20102;DHT22;10210;52.284;9.892;2022-09-14T00:38:45;18.70;99.90
20102;DHT22;10210;52.284;9.892;2022-09-14T00:41:17;18.70;99.90
20102;DHT22;10210;52.284;9.892;2022-09-14T00:44:06;18.70;99.90
20102;DHT22;10210;52.284;9.892;2022-09-14T00:49:14;18.60;99.90
20102;DHT22;10210;52.284;9.892;2022-09-14T00:51:55;18.50;99.90
20102;DHT22;10210;52.284;9.892;2022-09-14T00:54:22;18.50;99.90
20102;DHT22;10210;52.284;9.892;2022-09-14T00:56:48;18.50;99.90
20102;DHT22;10210;52.284;9.892;2022-09-14T00:59:21;18.50;99.90
20102;DHT22;10210;52.284;9.892;2022-09-14T01:01:50;18.50;99.90
20102;DHT22;10210;52.284;9.892;2022-09-14T01:04:16;18.50;99.90
20102;DHT22;10210;52.284;9.892;2022-09-14T01:09:47;18.40;99.90
20102;DHT22;10210;52.284;9.892;2022-09-14T01:18:59;18.40;99.90
20102;DHT22;10210;52.284;9.892;2022-09-14T01:21:31;18.40;99.90
20102;DHT22;10210;52.284;9.892;2022-09-14T01:24:34;18.40;99.90
20102;DHT22;10210;52.284;9.892;2022-09-14T01:30:02;18.40;99.90
20102;DHT22;10210;52.284;9.892;2022-09-14T01:32:49;18.40;99.90
20102;DHT22;10210;52.284;9.892;2022-09-14T01:35:28;18.40;99.90
20102;DHT22;10210;52.284;9.892;2022-09-14T01:38:30;18.40;99.90
20102;DHT22;10210;52.284;9.892;2022-09-14T01:41:02;18.40;99.90
20102;DHT22;10210;52.284;9.892;2022-09-14T01:43:50;18.30;99.90
20102;DHT22;10210;52.284;9.892;2022-09-14T01:46:32;18.30;99.90
20102;DHT22;10210;52.284;9.892;2022-09-14T01:49:14;18.30;99.90
20102;DHT22;10210;52.284;9.892;2022-09-14T01:52:00;18.30;99.90
20102;DHT22;10210;52.284;9.892;2022-09-14T01:57:19;18.30;99.90
20102;DHT22;10210;52.284;9.892;2022-09-14T01:59:51;18.30;99.90
20102;DHT22;10210;52.284;9.892;2022-09-14T02:02:24;18.30;99.90
20102;DHT22;10210;52.284;9.892;2022-09-14T02:07:38;18.30;99.90
20102;DHT22;10210;52.284;9.892;2022-09-14T02:10:06;18.30;99.90
20102;DHT22;10210;52.284;9.892;2022-09-14T02:12:35;18.30;99.90
20102;DHT22;10210;52.284;9.892;2022-09-14T02:15:01;18.30;99.90
20102;DHT22;10210;52.284;9.892;2022-09-14T02:17:27;18.30;99.90
20102;DHT22;10210;52.284;9.892;2022-09-14T02:19:58;18.30;99.90
20102;DHT22;10210;52.284;9.892;2022-09-14T02:22:27;18.30;99.90
20102;DHT22;10210;52.284;9.892;2022-09-14T02:24:54;18.30;99.90
20102;DHT22;10210;52.284;9.892;2022-09-14T02:27:21;18.30;99.90
20102;DHT22;10210;52.284;9.892;2022-09-14T02:29:48;18.20;99.90
20102;DHT22;10210;52.284;9.892;2022-09-14T02:32:29;18.20;99.90
20102;DHT22;10210;52.284;9.892;2022-09-14T02:35:24;18.20;99.90
20102;DHT22;10210;52.284;9.892;2022-09-14T02:38:00;18.20;99.90
20102;DHT22;10210;52.284;9.892;2022-09-14T02:40:39;18.20;99.90
20102;DHT22;10210;52.284;9.892;2022-09-14T02:43:32;18.20;99.90
20102;DHT22;10210;52.284;9.892;2022-09-14T02:46:13;18.20;99.90
20102;DHT22;10210;52.284;9.892;2022-09-14T02:49:00;18.20;99.90
20102;DHT22;10210;52.284;9.892;2022-09-14T02:54:15;18.20;99.90
20102;DHT22;10210;52.284;9.892;2022-09-14T02:56:45;18.10;99.90
20102;DHT22;10210;52.284;9.892;2022-09-14T02:59:12;18.10;99.90
20102;DHT22;10210;52.284;9.892;2022-09-14T03:01:38;18.10;99.90
20102;DHT22;10210;52.284;9.892;2022-09-14T03:04:04;18.10;99.90
20102;DHT22;10210;52.284;9.892;2022-09-14T03:06:30;18.10;99.90
20102;DHT22;10210;52.284;9.892;2022-09-14T03:08:56;18.00;99.90
20102;DHT22;10210;52.284;9.892;2022-09-14T03:11:21;18.10;99.90
20102;DHT22;10210;52.284;9.892;2022-09-14T03:13:47;18.10;99.90
20102;DHT22;10210;52.284;9.892;2022-09-14T03:16:14;18.00;99.90
20102;DHT22;10210;52.284;9.892;2022-09-14T03:18:41;18.10;99.90
20102;DHT22;10210;52.284;9.892;2022-09-14T03:21:09;18.00;99.90
20102;DHT22;10210;52.284;9.892;2022-09-14T03:23:47;18.10;99.90
20102;DHT22;10210;52.284;9.892;2022-09-14T03:26:18;18.00;99.90
20102;DHT22;10210;52.284;9.892;2022-09-14T03:28:54;18.00;99.90
20102;DHT22;10210;52.284;9.892;2022-09-14T03:31:22;18.00;99.90
20102;DHT22;10210;52.284;9.892;2022-09-14T03:33:53;18.10;99.90
20102;DHT22;10210;52.284;9.892;2022-09-14T03:36:20;18.00;99.90
20102;DHT22;10210;52.284;9.892;2022-09-14T03:38:51;18.00;99.90
20102;DHT22;10210;52.284;9.892;2022-09-14T03:41:20;18.00;99.90
20102;DHT22;10210;52.284;9.892;2022-09-14T03:43:46;18.00;99.90
20102;DHT22;10210;52.284;9.892;2022-09-14T03:46:17;17.90;99.90
20102;DHT22;10210;52.284;9.892;2022-09-14T03:48:45;17.90;99.90
20102;DHT22;10210;52.284;9.892;2022-09-14T03:51:13;17.90;99.90
20102;DHT22;10210;52.284;9.892;2022-09-14T03:53:40;17.90;99.90
20102;DHT22;10210;52.284;9.892;2022-09-14T03:56:12;17.90;99.90
20102;DHT22;10210;52.284;9.892;2022-09-14T03:58:43;17.90;99.90
20102;DHT22;10210;52.284;9.892;2022-09-14T04:01:14;17.80;99.90
20102;DHT22;10210;52.284;9.892;2022-09-14T04:03:42;17.80;99.90
20102;DHT22;10210;52.284;9.892;2022-09-14T04:06:09;17.80;99.90
20102;DHT22;10210;52.284;9.892;2022-09-14T04:08:37;17.70;99.90
20102;DHT22;10210;52.284;9.892;2022-09-14T04:11:12;17.70;99.90
20102;DHT22;10210;52.284;9.892;2022-09-14T04:13:43;17.70;99.90
20102;DHT22;10210;52.284;9.892;2022-09-14T04:16:10;17.60;99.90
20102;DHT22;10210;52.284;9.892;2022-09-14T04:18:38;17.70;99.90
20102;DHT22;10210;52.284;9.892;2022-09-14T04:21:12;17.60;99.90
20102;DHT22;10210;52.284;9.892;2022-09-14T04:23:39;17.60;99.90
20102;DHT22;10210;52.284;9.892;2022-09-14T04:26:13;17.60;99.90
20102;DHT22;10210;52.284;9.892;2022-09-14T04:28:41;17.60;99.90
20102;DHT22;10210;52.284;9.892;2022-09-14T04:31:10;17.60;99.90
20102;DHT22;10210;52.284;9.892;2022-09-14T04:33:40;17.60;99.90
20102;DHT22;10210;52.284;9.892;2022-09-14T04:36:15;17.60;99.90
20102;DHT22;10210;52.284;9.892;2022-09-14T04:38:43;17.60;99.90
20102;DHT22;10210;52.284;9.892;2022-09-14T04:41:12;17.60;99.90
20102;DHT22;10210;52.284;9.892;2022-09-14T04:43:40;17.50;99.90
20102;DHT22;10210;52.284;9.892;2022-09-14T04:46:10;17.50;99.90
20102;DHT22;10210;52.284;9.892;2022-09-14T04:48:40;17.50;99.90
20102;DHT22;10210;52.284;9.892;2022-09-14T04:51:14;17.40;99.90
20102;DHT22;10210;52.284;9.892;2022-09-14T04:53:42;17.40;99.90
20102;DHT22;10210;52.284;9.892;2022-09-14T04:56:11;17.40;99.90
20102;DHT22;10210;52.284;9.892;2022-09-14T04:58:42;17.40;99.90
20102;DHT22;10210;52.284;9.892;2022-09-14T05:01:12;17.40;99.90
20102;DHT22;10210;52.284;9.892;2022-09-14T05:03:40;17.40;99.90
20102;DHT22;10210;52.284;9.892;2022-09-14T05:06:17;17.40;99.90
20102;DHT22;10210;52.284;9.892;2022-09-14T05:08:48;17.40;99.90
20102;DHT22;10210;52.284;9.892;2022-09-14T05:11:20;17.40;99.90
20102;DHT22;10210;52.284;9.892;2022-09-14T05:13:47;17.40;99.90
20102;DHT22;10210;52.284;9.892;2022-09-14T05:16:28;17.30;99.90
20102;DHT22;10210;52.284;9.892;2022-09-14T05:18:58;17.30;99.90
20102;DHT22;10210;52.284;9.892;2022-09-14T05:21:30;17.30;99.90
20102;DHT22;10210;52.284;9.892;2022-09-14T05:24:02;17.30;99.90
20102;DHT22;10210;52.284;9.892;2022-09-14T05:26:38;17.30;99.90
20102;DHT22;10210;52.284;9.892;2022-09-14T05:29:03;17.30;99.90
20102;DHT22;10210;52.284;9.892;2022-09-14T05:31:30;17.30;99.90
20102;DHT22;10210;52.284;9.892;2022-09-14T05:33:57;17.30;99.90
20102;DHT22;10210;52.284;9.892;2022-09-14T05:36:23;17.30;99.90
20102;DHT22;10210;52.284;9.892;2022-09-14T05:38:49;17.30;99.90
20102;DHT22;10210;52.284;9.892;2022-09-14T05:41:16;17.30;99.90
20102;DHT22;10210;52.284;9.892;2022-09-14T05:43:42;17.30;99.90
20102;DHT22;10210;52.284;9.892;2022-09-14T05:46:14;17.30;99.90
20102;DHT22;10210;52.284;9.892;2022-09-14T05:48:41;17.30;99.90
20102;DHT22;10210;52.284;9.892;2022-09-14T05:51:10;17.30;99.90
20102;DHT22;10210;52.284;9.892;2022-09-14T05:53:38;17.30;99.90
20102;DHT22;10210;52.284;9.892;2022-09-14T05:56:07;17.30;99.90
20102;DHT22;10210;52.284;9.892;2022-09-14T05:58:36;17.30;99.90
20102;DHT22;10210;52.284;9.892;2022-09-14T06:01:14;17.40;99.90
20102;DHT22;10210;52.284;9.892;2022-09-14T06:03:42;17.40;99.90
20102;DHT22;10210;52.284;9.892;2022-09-14T06:06:12;17.40;99.90
20102;DHT22;10210;52.284;9.892;2022-09-14T06:08:40;17.40;99.90
20102;DHT22;10210;52.284;9.892;2022-09-14T06:11:14;17.40;99.90
20102;DHT22;10210;52.284;9.892;2022-09-14T06:13:43;17.50;99.90
20102;DHT22;10210;52.284;9.892;2022-09-14T06:16:15;17.50;99.90
20102;DHT22;10210;52.284;9.892;2022-09-14T06:18:43;17.50;99.90
20102;DHT22;10210;52.284;9.892;2022-09-14T06:21:11;17.60;99.90
20102;DHT22;10210;52.284;9.892;2022-09-14T06:23:40;17.60;99.90
20102;DHT22;10210;52.284;9.892;2022-09-14T06:26:06;17.60;99.90
20102;DHT22;10210;52.284;9.892;2022-09-14T06:28:32;17.70;99.90
20102;DHT22;10210;52.284;9.892;2022-09-14T06:30:59;17.70;99.90
20102;DHT22;10210;52.284;9.892;2022-09-14T06:33:27;17.70;99.90
20102;DHT22;10210;52.284;9.892;2022-09-14T06:35:57;17.70;99.90
20102;DHT22;10210;52.284;9.892;2022-09-14T06:38:29;17.70;99.90
20102;DHT22;10210;52.284;9.892;2022-09-14T06:41:00;17.80;99.90
20102;DHT22;10210;52.284;9.892;2022-09-14T06:43:31;17.80;99.90
20102;DHT22;10210;52.284;9.892;2022-09-14T06:46:22;17.80;99.90
20102;DHT22;10210;52.284;9.892;2022-09-14T06:48:51;17.80;99.90
20102;DHT22;10210;52.284;9.892;2022-09-14T06:51:25;17.70;99.90
20102;DHT22;10210;52.284;9.892;2022-09-14T06:53:57;17.80;99.90
20102;DHT22;10210;52.284;9.892;2022-09-14T06:56:35;17.80;99.90
20102;DHT22;10210;52.284;9.892;2022-09-14T06:59:03;17.90;99.90
20102;DHT22;10210;52.284;9.892;2022-09-14T07:01:30;18.00;99.90
20102;DHT22;10210;52.284;9.892;2022-09-14T07:03:56;18.00;99.90
20102;DHT22;10210;52.284;9.892;2022-09-14T07:06:29;18.00;99.90
20102;DHT22;10210;52.284;9.892;2022-09-14T07:08:56;18.10;99.90
20102;DHT22;10210;52.284;9.892;2022-09-14T07:11:25;18.10;99.90
20102;DHT22;10210;52.284;9.892;2022-09-14T07:13:53;18.20;99.90
20102;DHT22;10210;52.284;9.892;2022-09-14T07:16:21;18.20;99.90
20102;DHT22;10210;52.284;9.892;2022-09-14T07:18:55;18.30;99.90
20102;DHT22;10210;52.284;9.892;2022-09-14T07:21:22;18.30;99.90
20102;DHT22;10210;52.284;9.892;2022-09-14T07:23:48;18.40;99.90
20102;DHT22;10210;52.284;9.892;2022-09-14T07:26:21;18.40;99.90
20102;DHT22;10210;52.284;9.892;2022-09-14T07:29:00;18.50;99.90
20102;DHT22;10210;52.284;9.892;2022-09-14T07:31:50;18.60;99.90
20102;DHT22;10210;52.284;9.892;2022-09-14T07:34:18;18.60;99.90
20102;DHT22;10210;52.284;9.892;2022-09-14T07:36:44;18.60;99.90
20102;DHT22;10210;52.284;9.892;2022-09-14T07:39:13;18.70;99.90
20102;DHT22;10210;52.284;9.892;2022-09-14T07:41:40;18.70;99.90
20102;DHT22;10210;52.284;9.892;2022-09-14T07:44:08;18.80;99.90
20102;DHT22;10210;52.284;9.892;2022-09-14T07:46:41;18.90;99.90
20102;DHT22;10210;52.284;9.892;2022-09-14T07:49:09;19.00;99.90
20102;DHT22;10210;52.284;9.892;2022-09-14T07:51:36;19.00;99.90
20102;DHT22;10210;52.284;9.892;2022-09-14T07:54:02;19.10;99.90
20102;DHT22;10210;52.284;9.892;2022-09-14T07:56:29;19.20;99.90
20102;DHT22;10210;52.284;9.892;2022-09-14T07:58:56;19.30;99.90
20102;DHT22;10210;52.284;9.892;2022-09-14T08:01:23;19.30;99.90
20102;DHT22;10210;52.284;9.892;2022-09-14T08:03:48;19.40;99.90
20102;DHT22;10210;52.284;9.892;2022-09-14T08:06:18;19.40;99.90
20102;DHT22;10210;52.284;9.892;2022-09-14T08:08:49;19.50;99.90
20102;DHT22;10210;52.284;9.892;2022-09-14T08:11:24;19.50;99.90
20102;DHT22;10210;52.284;9.892;2022-09-14T08:13:56;19.60;99.90
20102;DHT22;10210;52.284;9.892;2022-09-14T08:16:25;19.70;99.90
20102;DHT22;10210;52.284;9.892;2022-09-14T08:18:58;19.80;99.90
20102;DHT22;10210;52.284;9.892;2022-09-14T08:21:27;20.00;99.90
20102;DHT22;10210;52.284;9.892;2022-09-14T08:23:54;20.20;99.90
20102;DHT22;10210;52.284;9.892;2022-09-14T08:26:23;20.40;99.90
20102;DHT22;10210;52.284;9.892;2022-09-14T08:28:51;20.60;99.90
20102;DHT22;10210;52.284;9.892;2022-09-14T08:31:19;20.70;99.90
20102;DHT22;10210;52.284;9.892;2022-09-14T08:33:49;20.80;99.90
20102;DHT22;10210;52.284;9.892;2022-09-14T08:36:19;20.80;99.90
20102;DHT22;10210;52.284;9.892;2022-09-14T08:38:46;20.90;99.90
20102;DHT22;10210;52.284;9.892;2022-09-14T08:41:33;20.90;99.90
20102;DHT22;10210;52.284;9.892;2022-09-14T08:44:27;20.90;99.90
20102;DHT22;10210;52.284;9.892;2022-09-14T08:49:47;21.00;99.90
20102;DHT22;10210;52.284;9.892;2022-09-14T08:52:37;21.00;99.90
20102;DHT22;10210;52.284;9.892;2022-09-14T08:55:46;21.10;99.90
20102;DHT22;10210;52.284;9.892;2022-09-14T09:10:03;21.90;99.90
20102;DHT22;10210;52.284;9.892;2022-09-14T09:12:38;22.00;99.90
20102;DHT22;10210;52.284;9.892;2022-09-14T09:15:20;22.00;99.90
20102;DHT22;10210;52.284;9.892;2022-09-14T09:18:08;22.20;99.90
20102;DHT22;10210;52.284;9.892;2022-09-14T09:20:43;22.20;99.90
20102;DHT22;10210;52.284;9.892;2022-09-14T09:23:16;22.20;99.90
20102;DHT22;10210;52.284;9.892;2022-09-14T09:26:00;22.30;99.90
20102;DHT22;10210;52.284;9.892;2022-09-14T09:28:30;22.30;99.90
20102;DHT22;10210;52.284;9.892;2022-09-14T09:31:01;22.40;99.90
20102;DHT22;10210;52.284;9.892;2022-09-14T09:33:30;22.40;99.90
20102;DHT22;10210;52.284;9.892;2022-09-14T09:35:56;22.50;99.90
20102;DHT22;10210;52.284;9.892;2022-09-14T09:38:25;22.60;99.90
20102;DHT22;10210;52.284;9.892;2022-09-14T09:41:18;22.70;99.90
20102;DHT22;10210;52.284;9.892;2022-09-14T09:43:59;22.80;99.90
20102;DHT22;10210;52.284;9.892;2022-09-14T09:46:28;23.00;99.90
20102;DHT22;10210;52.284;9.892;2022-09-14T09:48:56;23.00;99.90
20102;DHT22;10210;52.284;9.892;2022-09-14T09:51:30;23.00;99.90
20102;DHT22;10210;52.284;9.892;2022-09-14T09:54:06;23.00;99.90
20102;DHT22;10210;52.284;9.892;2022-09-14T09:56:55;22.90;99.90
20102;DHT22;10210;52.284;9.892;2022-09-14T09:59:27;22.80;99.90
20102;DHT22;10210;52.284;9.892;2022-09-14T10:05:05;22.70;99.90
20102;DHT22;10210;52.284;9.892;2022-09-14T10:10:19;22.70;99.90
20102;DHT22;10210;52.284;9.892;2022-09-14T10:12:53;22.70;99.90
20102;DHT22;10210;52.284;9.892;2022-09-14T10:15:25;22.70;99.90
20102;DHT22;10210;52.284;9.892;2022-09-14T10:18:07;22.70;99.90
20102;DHT22;10210;52.284;9.892;2022-09-14T10:21:04;22.70;99.90
20102;DHT22;10210;52.284;9.892;2022-09-14T10:23:34;22.70;99.90
20102;DHT22;10210;52.284;9.892;2022-09-14T10:28:41;22.60;99.90
20102;DHT22;10210;52.284;9.892;2022-09-14T10:33:44;22.50;99.90
20102;DHT22;10210;52.284;9.892;2022-09-14T10:36:25;22.50;99.90
20102;DHT22;10210;52.284;9.892;2022-09-14T10:39:38;22.40;99.90
20102;DHT22;10210;52.284;9.892;2022-09-14T10:45:23;22.30;99.90
20102;DHT22;10210;52.284;9.892;2022-09-14T10:48:07;22.20;99.90
20102;DHT22;10210;52.284;9.892;2022-09-14T10:50:46;22.20;99.90
20102;DHT22;10210;52.284;9.892;2022-09-14T10:53:52;22.20;99.90
20102;DHT22;10210;52.284;9.892;2022-09-14T10:57:30;22.10;99.90
20102;DHT22;10210;52.284;9.892;2022-09-14T10:59:48;22.10;99.90
20102;DHT22;10210;52.284;9.892;2022-09-14T11:05:14;22.10;99.90
20102;DHT22;10210;52.284;9.892;2022-09-14T11:08:17;22.10;99.90
20102;DHT22;10210;52.284;9.892;2022-09-14T11:11:35;22.10;99.90
20102;DHT22;10210;52.284;9.892;2022-09-14T11:20:18;22.10;99.90
20102;DHT22;10210;52.284;9.892;2022-09-14T11:22:59;22.10;99.90
20102;DHT22;10210;52.284;9.892;2022-09-14T11:25:48;22.10;99.90
20102;DHT22;10210;52.284;9.892;2022-09-14T11:28:32;22.10;99.90
20102;DHT22;10210;52.284;9.892;2022-09-14T11:31:15;22.20;99.90
20102;DHT22;10210;52.284;9.892;2022-09-14T11:36:49;22.30;99.90
20102;DHT22;10210;52.284;9.892;2022-09-14T11:39:28;22.30;99.90
20102;DHT22;10210;52.284;9.892;2022-09-14T11:42:07;22.30;99.90
20102;DHT22;10210;52.284;9.892;2022-09-14T11:44:40;22.40;99.90
20102;DHT22;10210;52.284;9.892;2022-09-14T11:47:19;22.40;99.90
20102;DHT22;10210;52.284;9.892;2022-09-14T11:50:09;22.40;99.90
20102;DHT22;10210;52.284;9.892;2022-09-14T11:52:44;22.40;99.90
20102;DHT22;10210;52.284;9.892;2022-09-14T11:55:17;22.50;99.90
20102;DHT22;10210;52.284;9.892;2022-09-14T11:57:44;22.40;99.90
20102;DHT22;10210;52.284;9.892;2022-09-14T12:05:31;22.40;99.90
20102;DHT22;10210;52.284;9.892;2022-09-14T12:08:02;22.40;99.90
20102;DHT22;10210;52.284;9.892;2022-09-14T12:10:30;22.30;99.90
20102;DHT22;10210;52.284;9.892;2022-09-14T12:15:33;22.30;99.90
20102;DHT22;10210;52.284;9.892;2022-09-14T12:20:47;22.20;99.90
20102;DHT22;10210;52.284;9.892;2022-09-14T12:23:21;22.30;99.90
20102;DHT22;10210;52.284;9.892;2022-09-14T12:26:01;22.20;99.90
20102;DHT22;10210;52.284;9.892;2022-09-14T12:36:06;22.20;99.90
20102;DHT22;10210;52.284;9.892;2022-09-14T12:54:30;22.10;99.90
20102;DHT22;10210;52.284;9.892;2022-09-14T12:57:30;22.10;99.90
20102;DHT22;10210;52.284;9.892;2022-09-14T13:00:17;22.10;99.90
20102;DHT22;10210;52.284;9.892;2022-09-14T13:05:24;22.10;99.90
20102;DHT22;10210;52.284;9.892;2022-09-14T13:07:56;22.10;99.90
20102;DHT22;10210;52.284;9.892;2022-09-14T13:10:29;22.10;99.90
20102;DHT22;10210;52.284;9.892;2022-09-14T13:13:02;22.10;99.90
20102;DHT22;10210;52.284;9.892;2022-09-14T13:15:35;22.10;99.90
20102;DHT22;10210;52.284;9.892;2022-09-14T13:20:52;22.10;99.90
20102;DHT22;10210;52.284;9.892;2022-09-14T13:23:28;22.10;99.90
20102;DHT22;10210;52.284;9.892;2022-09-14T13:26:28;22.10;99.90
20102;DHT22;10210;52.284;9.892;2022-09-14T13:28:56;22.10;99.90
20102;DHT22;10210;52.284;9.892;2022-09-14T13:31:33;22.10;99.90
20102;DHT22;10210;52.284;9.892;2022-09-14T13:34:01;22.10;99.90
20102;DHT22;10210;52.284;9.892;2022-09-14T13:36:32;22.10;99.90
20102;DHT22;10210;52.284;9.892;2022-09-14T13:39:01;22.10;99.90
20102;DHT22;10210;52.284;9.892;2022-09-14T13:41:35;22.10;99.90
20102;DHT22;10210;52.284;9.892;2022-09-14T13:44:07;22.10;99.90
20102;DHT22;10210;52.284;9.892;2022-09-14T13:46:35;22.10;99.90
20102;DHT22;10210;52.284;9.892;2022-09-14T13:49:01;22.10;99.90
20102;DHT22;10210;52.284;9.892;2022-09-14T13:51:31;22.10;99.90
20102;DHT22;10210;52.284;9.892;2022-09-14T13:54:06;22.00;99.90
20102;DHT22;10210;52.284;9.892;2022-09-14T13:56:41;22.00;99.90
20102;DHT22;10210;52.284;9.892;2022-09-14T14:01:57;22.00;99.90
20102;DHT22;10210;52.284;9.892;2022-09-14T14:04:31;22.00;99.90
20102;DHT22;10210;52.284;9.892;2022-09-14T14:07:15;22.00;99.90
20102;DHT22;10210;52.284;9.892;2022-09-14T14:10:01;22.00;99.90
20102;DHT22;10210;52.284;9.892;2022-09-14T14:12:34;22.00;99.90
20102;DHT22;10210;52.284;9.892;2022-09-14T14:15:05;22.00;99.90
20102;DHT22;10210;52.284;9.892;2022-09-14T14:17:52;22.00;99.90
20102;DHT22;10210;52.284;9.892;2022-09-14T14:23:20;22.00;99.90
20102;DHT22;10210;52.284;9.892;2022-09-14T14:25:50;22.00;99.90
20102;DHT22;10210;52.284;9.892;2022-09-14T14:28:26;22.00;99.90
20102;DHT22;10210;52.284;9.892;2022-09-14T14:30:55;22.00;99.90
20102;DHT22;10210;52.284;9.892;2022-09-14T14:33:22;22.00;99.90
20102;DHT22;10210;52.284;9.892;2022-09-14T14:35:50;22.00;99.90
20102;DHT22;10210;52.284;9.892;2022-09-14T14:38:18;22.00;99.90
20102;DHT22;10210;52.284;9.892;2022-09-14T14:40:45;22.00;99.90
20102;DHT22;10210;52.284;9.892;2022-09-14T14:43:17;22.00;99.90
20102;DHT22;10210;52.284;9.892;2022-09-14T14:45:45;22.00;99.90
20102;DHT22;10210;52.284;9.892;2022-09-14T14:48:11;22.00;99.90
20102;DHT22;10210;52.284;9.892;2022-09-14T14:50:38;22.00;99.90
20102;DHT22;10210;52.284;9.892;2022-09-14T14:53:05;22.00;99.90
20102;DHT22;10210;52.284;9.892;2022-09-14T14:55:31;22.00;99.90
20102;DHT22;10210;52.284;9.892;2022-09-14T14:58:00;22.00;99.90
20102;DHT22;10210;52.284;9.892;2022-09-14T15:00:34;22.00;99.90
20102;DHT22;10210;52.284;9.892;2022-09-14T15:03:01;22.00;99.90
20102;DHT22;10210;52.284;9.892;2022-09-14T15:05:27;21.90;99.90
20102;DHT22;10210;52.284;9.892;2022-09-14T15:07:53;21.90;99.90
20102;DHT22;10210;52.284;9.892;2022-09-14T15:10:22;21.90;99.90
20102;DHT22;10210;52.284;9.892;2022-09-14T15:12:49;21.90;99.90
20102;DHT22;10210;52.284;9.892;2022-09-14T15:15:20;21.90;99.90
20102;DHT22;10210;52.284;9.892;2022-09-14T15:17:49;21.90;99.90
20102;DHT22;10210;52.284;9.892;2022-09-14T15:20:15;21.90;99.90
20102;DHT22;10210;52.284;9.892;2022-09-14T15:22:42;21.90;99.90
20102;DHT22;10210;52.284;9.892;2022-09-14T15:25:09;21.90;99.90
20102;DHT22;10210;52.284;9.892;2022-09-14T15:27:35;21.90;99.90
20102;DHT22;10210;52.284;9.892;2022-09-14T15:30:02;21.90;99.90
20102;DHT22;10210;52.284;9.892;2022-09-14T15:32:28;21.90;99.90
20102;DHT22;10210;52.284;9.892;2022-09-14T15:34:55;21.90;99.90
20102;DHT22;10210;52.284;9.892;2022-09-14T15:37:21;21.90;99.90
20102;DHT22;10210;52.284;9.892;2022-09-14T15:39:47;21.90;99.90
20102;DHT22;10210;52.284;9.892;2022-09-14T15:42:15;21.80;99.90
20102;DHT22;10210;52.284;9.892;2022-09-14T15:44:41;21.90;99.90
20102;DHT22;10210;52.284;9.892;2022-09-14T15:47:09;21.80;99.90
20102;DHT22;10210;52.284;9.892;2022-09-14T15:49:36;21.80;99.90
20102;DHT22;10210;52.284;9.892;2022-09-14T15:52:02;21.80;99.90
20102;DHT22;10210;52.284;9.892;2022-09-14T15:54:33;21.80;99.90
20102;DHT22;10210;52.284;9.892;2022-09-14T15:57:00;21.80;99.90
20102;DHT22;10210;52.284;9.892;2022-09-14T15:59:27;21.80;99.90
20102;DHT22;10210;52.284;9.892;2022-09-14T16:01:53;21.80;99.90
20102;DHT22;10210;52.284;9.892;2022-09-14T16:04:19;21.80;99.90
20102;DHT22;10210;52.284;9.892;2022-09-14T16:06:45;21.80;99.90
20102;DHT22;10210;52.284;9.892;2022-09-14T16:09:16;21.80;99.90
20102;DHT22;10210;52.284;9.892;2022-09-14T16:11:43;21.80;99.90
20102;DHT22;10210;52.284;9.892;2022-09-14T16:14:10;21.80;99.90
20102;DHT22;10210;52.284;9.892;2022-09-14T16:16:37;21.70;99.90
20102;DHT22;10210;52.284;9.892;2022-09-14T16:19:06;21.70;99.90
20102;DHT22;10210;52.284;9.892;2022-09-14T16:21:33;21.70;99.90
20102;DHT22;10210;52.284;9.892;2022-09-14T16:24:01;21.70;99.90
20102;DHT22;10210;52.284;9.892;2022-09-14T16:26:31;21.70;99.90
20102;DHT22;10210;52.284;9.892;2022-09-14T16:28:58;21.70;99.90
20102;DHT22;10210;52.284;9.892;2022-09-14T16:31:30;21.60;99.90
20102;DHT22;10210;52.284;9.892;2022-09-14T16:34:01;21.60;99.90
20102;DHT22;10210;52.284;9.892;2022-09-14T16:36:33;21.60;99.90
20102;DHT22;10210;52.284;9.892;2022-09-14T16:39:03;21.60;99.90
20102;DHT22;10210;52.284;9.892;2022-09-14T16:41:30;21.60;99.90
20102;DHT22;10210;52.284;9.892;2022-09-14T16:43:59;21.50;99.90
20102;DHT22;10210;52.284;9.892;2022-09-14T16:46:27;21.50;99.90
20102;DHT22;10210;52.284;9.892;2022-09-14T16:48:54;21.50;99.90
20102;DHT22;10210;52.284;9.892;2022-09-14T16:51:24;21.40;99.90
20102;DHT22;10210;52.284;9.892;2022-09-14T16:53:51;21.40;99.90
20102;DHT22;10210;52.284;9.892;2022-09-14T16:56:23;21.30;99.90
20102;DHT22;10210;52.284;9.892;2022-09-14T16:58:53;21.30;99.90
20102;DHT22;10210;52.284;9.892;2022-09-14T17:01:34;21.20;99.90
20102;DHT22;10210;52.284;9.892;2022-09-14T17:04:05;21.20;99.90
20102;DHT22;10210;52.284;9.892;2022-09-14T17:06:37;21.20;99.90
20102;DHT22;10210;52.284;9.892;2022-09-14T17:09:14;21.10;99.90
20102;DHT22;10210;52.284;9.892;2022-09-14T17:11:50;21.00;99.90
20102;DHT22;10210;52.284;9.892;2022-09-14T17:14:18;21.00;99.90
20102;DHT22;10210;52.284;9.892;2022-09-14T17:16:46;21.00;99.90
20102;DHT22;10210;52.284;9.892;2022-09-14T17:19:13;20.90;99.90
20102;DHT22;10210;52.284;9.892;2022-09-14T17:21:40;20.90;99.90
20102;DHT22;10210;52.284;9.892;2022-09-14T17:24:07;20.90;99.90
20102;DHT22;10210;52.284;9.892;2022-09-14T17:26:34;20.80;99.90
20102;DHT22;10210;52.284;9.892;2022-09-14T17:29:01;20.80;99.90
20102;DHT22;10210;52.284;9.892;2022-09-14T17:31:31;20.80;99.90
20102;DHT22;10210;52.284;9.892;2022-09-14T17:34:01;20.70;99.90
20102;DHT22;10210;52.284;9.892;2022-09-14T17:36:28;20.70;99.90
20102;DHT22;10210;52.284;9.892;2022-09-14T17:38:56;20.70;99.90
20102;DHT22;10210;52.284;9.892;2022-09-14T17:41:24;20.60;99.90
20102;DHT22;10210;52.284;9.892;2022-09-14T17:44:00;20.60;99.90
20102;DHT22;10210;52.284;9.892;2022-09-14T17:46:28;20.60;99.90
20102;DHT22;10210;52.284;9.892;2022-09-14T17:48:56;20.60;99.90
20102;DHT22;10210;52.284;9.892;2022-09-14T17:51:25;20.50;99.90